LATAM Chile A321 at Santiago on Dec 28th 2020, burst tyre on landing

Last Update: January 7, 2021 / 14:20:24 GMT/Zulu time

Bookmark this article
Incident Facts

Date of incident
Dec 28, 2020

Classification
Incident

Flight number
LA-157

Departure
Calama, Chile

Destination
Santiago, Chile

Aircraft Registration
CC-BEL

Aircraft Type
Airbus A321

ICAO Type Designator
A321

Airport ICAO Code
SCEL

A LATAM Chile Airbus A321-200, registration CC-BEL performing flight LA-157 from Calama to Santiago (Chile), landed on Santiago's runway 17R but burst the #4 tyre (outboard right main). The aircraft rolled out and taxied to the apron, where ground workers discovered the burst tyre and minor damage to the gear strut.

Chile's DGAC opened an investigation into the occurrence rated an incident.

Metars:
SCEL 290300Z AUTO 14009KT 9999 NCD 18/12 Q1016=
SCEL 290200Z 14009KT CAVOK 20/12 Q1016 NOSIG=
SCEL 290100Z 15011KT CAVOK 21/12 Q1015 NOSIG=
SCEL 290000Z 19014KT CAVOK 23/11 Q1015 NOSIG=
SCEL 282300Z 21017KT CAVOK 25/12 Q1014 NOSIG=
SCEL 282200Z 21020KT CAVOK 26/13 Q1013 NOSIG=
SCEL 282100Z 22018KT CAVOK 29/13 Q1014 NOSIG=
Incident Facts

Date of incident
Dec 28, 2020

Classification
Incident

Flight number
LA-157

Departure
Calama, Chile

Destination
Santiago, Chile

Aircraft Registration
CC-BEL

Aircraft Type
Airbus A321

ICAO Type Designator
A321

Airport ICAO Code
SCEL

This article is published under license from Avherald.com. © of text by Avherald.com.
Article source

You can read 2 more free articles without a subscription.

Subscribe now and continue reading without any limits!

Are you a subscriber? Login
Subscribe

Read unlimited articles and receive our daily update briefing. Gain better insights into what is happening in commercial aviation safety.

Free newsletter

Want to know more and stay ahead? Get our free weekly newsletter and join 5457 existing subscribers.

By subscribing, you accept our terms and conditions and confirm that you've read our privacy policy.

Send tip

Support AeroInside by sending a small tip amount.

Related articles

Newest articles

Subscribe today

Are you researching aviation incidents? Get access to AeroInside Insights, unlimited read access and receive the daily newsletter.

Pick your plan and subscribe

Partner

Blockaviation logo

A new way to document and demonstrate airworthiness compliance and aircraft value. Find out more.

Virtual Speech logo

ELITE Simulation Solutions is a leading global provider of Flight Simulation Training Devices, IFR training software as well as flight controls and related services. Find out more.

Get updates

Never miss an article from AeroInside. Subscribe to our free weekly newsletter and join 5457 existing subscribers.

By subscribing, you accept our terms and conditions and that you've read our privacy policy.

AeroInside Blog
Popular aircraft
Airbus A320
Boeing 737-800
Boeing 737-800 MAX
Popular airlines
American Airlines
United
Delta
Air Canada
Lufthansa
British Airways